N3SW Weather Reports


Display with metric or nautical units.
time (UTC)temp
F
wind
direction
speed
MPH
gust
MPH
rain 1hr
in
rain 24hr
in
rain mn
in
humidity
%
barometer
mb
20210122021618 36 271 0.0 1.0 0.00 0.00 0.00 63 1004.4
20210122020318 36 271 0.0 0.0 0.00 0.00 0.00 62 1004.5
20210122014621 33 233 0.0 0.0 0.00 0.00 0.00 71 1004.6
20210122013058 37 271 0.0 0.0 0.00 0.00 0.00 59 1004.7
20210122011743 37 271 0.0 0.0 0.00 0.00 0.00 58 1004.8
20210122010118 38 271 0.0 2.0 0.00 0.00 0.00 57 1004.7
20210122004606 39 271 0.0 0.0 0.00 0.00 0.00 55 1004.7
20210122003147 40 271 0.0 2.0 0.00 0.00 0.00 54 1004.6
20210122001619 40 271 0.0 1.0 0.00 0.00 0.00 53 1004.5
20210122000100 41 271 0.0 3.0 0.00 0.00 0.00 52 1004.4
20210121234616 41 271 0.0 1.0 0.00 0.00 0.00 51 1004.2
20210121233141 42 271 0.0 3.0 0.00 0.00 0.00 50 1004.2
20210121231557 42 271 0.0 6.0 0.00 0.00 0.00 50 1004.2
20210121230116 43 272 0.0 6.0 0.00 0.00 0.00 49 1004.1
20210121224550 43 275 0.0 6.0 0.00 0.00 0.00 48 1004.0
20210121223114 44 274 1.0 8.0 0.00 0.00 0.00 47 1003.9
20210121221610 45 270 0.0 3.0 0.00 0.00 0.00 46 1003.8
20210121220106 45 270 3.0 9.0 0.00 0.00 0.00 45 1003.8
20210121214546 46 273 1.0 10.0 0.00 0.00 0.00 44 1003.8
20210121213151 46 295 2.0 13.0 0.00 0.00 0.00 44 1003.9
20210121211613 47 282 7.0 17.0 0.00 0.00 0.00 43 1003.8
20210121210100 47 254 7.0 14.0 0.00 0.00 0.00 43 1003.8
20210121204625 47 277 3.0 15.0 0.00 0.00 0.00 43 1003.9
20210121203036 47 277 4.0 15.0 0.00 0.00 0.00 44 1003.9
20210121201548 48 322 0.0 12.0 0.00 0.00 0.00 46 1004.0
20210121200048 47 302 1.0 13.0 0.00 0.00 0.00 46 1004.1
20210121194547 47 273 5.0 13.0 0.00 0.00 0.00 46 1004.3
20210121193055 47 259 7.0 14.0 0.00 0.00 0.00 46 1004.5
20210121191642 47 286 2.0 11.0 0.00 0.00 0.00 47 1004.6
20210121190044 46 296 7.0 16.0 0.00 0.00 0.00 48 1004.9
20210121184531 45 339 7.0 16.0 0.00 0.00 0.00 49 1004.9
20210121183042 45 331 3.0 14.0 0.00 0.00 0.00 49 1005.2
20210121181524 45 307 2.0 12.0 0.00 0.00 0.00 50 1005.5
20210121180021 43 286 1.0 8.0 0.00 0.00 0.00 52 1005.7
20210121174534 42 309 1.0 5.0 0.00 0.00 0.00 52 1006.1
20210121173001 40 328 1.0 5.0 0.00 0.00 0.00 55 1006.5
20210121171734 38 340 0.0 4.0 0.00 0.00 0.00 55 1006.8
20210121170120 37 340 1.0 4.0 0.00 0.00 0.00 57 1007.3
20210121164616 36 344 2.0 5.0 0.00 0.00 0.00 58 1007.8
20210121163125 36 344 0.0 3.0 0.00 0.00 0.00 58 1008.2
20210121161704 36 345 2.0 9.0 0.00 0.00 0.00 58 1009.0
20210121160143 36 292 1.0 8.0 0.00 0.00 0.00 57 1009.2
20210121154607 34 276 1.0 8.0 0.00 0.00 0.00 60 1009.6
20210121153118 33 276 3.0 7.0 0.00 0.00 0.00 60 1009.9
20210121151556 33 276 2.0 8.0 0.00 0.00 0.00 61 1010.3
20210121150050 32 271 3.0 10.0 0.00 0.00 0.00 63 1010.2
20210121144545 31 255 0.0 5.0 0.00 0.00 0.00 65 1010.4
20210121143050 30 251 1.0 5.0 0.00 0.00 0.00 66 1010.4
20210121141554 29 284 0.0 4.0 0.00 0.00 0.00 68 1010.4
20210121140042 29 253 0.0 2.0 0.00 0.00 0.00 68 1010.7
20210121134516 28 226 0.0 3.0 0.00 0.00 0.00 68 1010.8
20210121133020 28 259 0.0 1.0 0.00 0.00 0.00 68 1011.1
20210121131518 28 253 0.0 4.0 0.00 0.00 0.00 69 1011.4
20210121130024 27 246 0.0 4.0 0.00 0.00 0.00 68 1011.4
20210121124514 26 253 0.0 3.0 0.00 0.00 0.00 70 1011.6
20210121123406 26 273 0.0 8.0 0.00 0.00 0.00 72 1011.8
20210121121700 24 271 0.0 10.0 0.00 0.00 0.00 76 1012.1
20210121120217 23 345 0.0 0.0 0.00 0.00 0.00 78 1012.2
20210121114639 23 345 0.0 0.0 0.00 0.00 0.00 80 1012.5
20210121113125 22 345 0.0 0.0 0.00 0.00 0.00 79 1012.7
20210121111656 22 345 0.0 0.0 0.00 0.00 0.00 79 1012.9
20210121110112 22 345 0.0 0.0 0.00 0.00 0.00 80 1012.9
20210121104639 21 345 0.0 0.0 0.00 0.00 0.00 79 1012.9
20210121103053 21 345 0.0 0.0 0.00 0.00 0.00 78 1013.6
20210121101636 20 345 0.0 0.0 0.00 0.00 0.00 76 1013.7
20210121100102 20 345 0.0 0.0 0.00 0.00 0.00 76 1014.1
20210121094643 20 345 0.0 0.0 0.00 0.00 0.00 77 1014.2
20210121093058 20 345 0.0 0.0 0.00 0.00 0.00 78 1014.6
20210121091807 20 345 0.0 0.0 0.00 0.00 0.00 78 1014.5
20210121090053 20 345 0.0 0.0 0.00 0.00 0.00 78 1014.7
20210121084608 19 345 0.0 0.0 0.00 0.00 0.00 79 1015.2
20210121083101 19 345 0.0 0.0 0.00 0.00 0.00 79 1015.4
20210121081544 19 345 0.0 0.0 0.00 0.00 0.00 79 1014.9
20210121080045 20 345 0.0 0.0 0.00 0.00 0.00 78 1015.4
20210121074541 20 345 0.0 0.0 0.00 0.00 0.00 77 1015.8
20210121073047 20 345 0.0 0.0 0.00 0.00 0.00 78 1016.1
20210121071608 21 345 0.0 0.0 0.00 0.00 0.00 77 1016.6
20210121070041 21 345 0.0 0.0 0.00 0.00 0.00 73 1016.9
20210121064539 22 345 0.0 0.0 0.00 0.00 0.00 72 1016.8
20210121063027 22 345 0.0 0.0 0.00 0.00 0.00 71 1017.0
20210121061526 22 345 0.0 0.0 0.00 0.00 0.00 70 1017.3
20210121060026 23 345 0.0 0.0 0.00 0.00 0.00 69 1017.4
20210121054618 23 345 0.0 0.0 0.00 0.00 0.00 69 1017.6
20210121053218 23 345 0.0 0.0 0.00 0.00 0.00 69 1018.0
20210121051704 24 345 0.0 0.0 0.00 0.00 0.00 67 1017.9
20210121050146 24 345 0.0 0.0 0.00 0.00 0.00 66 1017.9
20210121044634 24 345 0.0 1.0 0.00 0.00 0.00 66 1018.3
20210121043140 24 345 0.0 1.0 0.00 0.00 0.00 66 1018.8
20210121041649 24 345 0.0 1.0 0.00 0.00 0.00 66 1019.1
20210121040201 24 345 0.0 1.0 0.00 0.00 0.00 65 1019.4
20210121034613 25 345 0.0 0.0 0.00 0.00 0.00 64 1019.5
20210121033135 25 345 0.0 0.0 0.00 0.00 0.00 63 1019.7
20210121031739 25 345 0.0 0.0 0.00 0.00 0.00 63 1020.0
20210121030130 26 345 0.0 2.0 0.00 0.00 0.00 63 1020.4
20210121024749 26 345 0.0 2.0 0.00 0.00 0.00 61 1020.6
20210121023121 26 345 0.0 0.0 0.00 0.00 0.00 61 1020.5